PWSweather.com
Personal Weather Stations
Station Observations
KVAGLENALL
West Henrico, Glen Allen, VA 23060-6503

West HenricoGlen Allen, VA 23060-6503

Lat: 37.6554, Lon: -77.5693

Elevation: 273

Station Type: Davis Vantage Pro II

www.glenallenweather.com

High Low Average
Temperature 70.1°F21.2°C 47.4°F8.6°C 57.3°F14.1°C
Dew Point 54.6°F12.6°C 38.9°F3.8°C 47.8°F8.8°C
Winds 12.1 mph 19.5 kmh 0.1 mph 0.2 kmh 4.0 mph SSE6.4 kmh SSE
Wind Gusts 19.2 mph30.9 kmh 0.1 mph0.2 kmh 8.0 mph12.9 kmh
Humidity 98% 49% 73%
Pressure 30.12 in1020.0 mb 29.68 in1005.1 mb -
Precipitation 0.00 in0.0 mm - -
Hour Temp Dew Point Humidity Winds Wind Gusts Pressure Precip Precip Rate Daily Precip Total
12:00 AM 52.1°F11.2°C 51.5°F10.8°C 98% 1.0 mph SSW1.6 kmh SSW 2.1 mph3.4 kmh 29.67 in1004.7 mb 0.00 in0.0 mm 0.00 in0.0 mm 0.00 in0.0 mm
12:15 AM 53.2°F11.8°C 52.6°F11.4°C 98% 1.0 mph SW1.6 kmh SW 3.1 mph5.0 kmh 29.68 in1005.1 mb 0.00 in0.0 mm 0.00 in0.0 mm 0.00 in0.0 mm
12:30 AM 53.4°F11.9°C 52.8°F11.6°C 98% 0.1 mph SSW0.2 kmh SSW 2.1 mph3.4 kmh 29.68 in1005.1 mb 0.00 in0.0 mm 0.00 in0.0 mm 0.00 in0.0 mm
12:45 AM 53.3°F11.8°C 52.7°F11.5°C 98% 2.0 mph SW3.2 kmh SW 4.1 mph6.6 kmh 29.68 in1005.1 mb 0.00 in0.0 mm 0.00 in0.0 mm 0.00 in0.0 mm
01:00 AM 53.3°F11.8°C 52.7°F11.5°C 98% 2.0 mph SSW3.2 kmh SSW 4.1 mph6.6 kmh 29.68 in1005.1 mb 0.00 in0.0 mm 0.00 in0.0 mm 0.00 in0.0 mm
01:15 AM 53.2°F11.8°C 52.6°F11.4°C 98% 1.0 mph SW1.6 kmh SW 5.1 mph8.2 kmh 29.68 in1005.1 mb 0.00 in0.0 mm 0.00 in0.0 mm 0.00 in0.0 mm
01:30 AM 52.6°F11.4°C 51.7°F10.9°C 97% 0.1 mph SSW0.2 kmh SSW 2.1 mph3.4 kmh 29.68 in1005.1 mb 0.00 in0.0 mm 0.00 in0.0 mm 0.00 in0.0 mm
01:45 AM 52.0°F11.1°C 51.1°F10.6°C 97% 5.1 mph SSW8.2 kmh SSW 5.1 mph8.2 kmh 29.69 in1005.4 mb 0.00 in0.0 mm 0.00 in0.0 mm 0.00 in0.0 mm
02:00 AM 51.5°F10.8°C 50.4°F10.2°C 96% 0.1 mph SW0.2 kmh SW 3.1 mph5.0 kmh 29.69 in1005.4 mb 0.00 in0.0 mm 0.00 in0.0 mm 0.00 in0.0 mm
02:15 AM 50.9°F10.5°C 49.8°F9.9°C 96% 2.0 mph SW3.2 kmh SW 5.1 mph8.2 kmh 29.69 in1005.4 mb 0.00 in0.0 mm 0.00 in0.0 mm 0.00 in0.0 mm
02:30 AM 50.4°F10.2°C 49.3°F9.6°C 96% 5.1 mph SW8.2 kmh SW 6.1 mph9.8 kmh 29.69 in1005.4 mb 0.00 in0.0 mm 0.00 in0.0 mm 0.00 in0.0 mm
02:45 AM 50.3°F10.2°C 49.4°F9.7°C 97% 3.0 mph SW4.8 kmh SW 4.1 mph6.6 kmh 29.68 in1005.1 mb 0.00 in0.0 mm 0.00 in0.0 mm 0.00 in0.0 mm
03:00 AM 50.0°F10.0°C 49.1°F9.5°C 97% 3.0 mph SW4.8 kmh SW 3.1 mph5.0 kmh 29.68 in1005.1 mb 0.00 in0.0 mm 0.00 in0.0 mm 0.00 in0.0 mm
03:15 AM 49.8°F9.9°C 48.9°F9.4°C 97% 0.1 mph SW0.2 kmh SW 0.1 mph0.2 kmh 29.69 in1005.4 mb 0.00 in0.0 mm 0.00 in0.0 mm 0.00 in0.0 mm
03:30 AM 49.6°F9.8°C 48.5°F9.2°C 96% 0.1 mph SW0.2 kmh SW 0.1 mph0.2 kmh 29.69 in1005.4 mb 0.00 in0.0 mm 0.00 in0.0 mm 0.00 in0.0 mm
03:45 AM 49.5°F9.7°C 48.4°F9.1°C 96% 2.0 mph SSW3.2 kmh SSW 4.1 mph6.6 kmh 29.70 in1005.8 mb 0.00 in0.0 mm 0.00 in0.0 mm 0.00 in0.0 mm
04:00 AM 49.6°F9.8°C 48.2°F9.0°C 95% 2.0 mph SW3.2 kmh SW 7.1 mph11.4 kmh 29.70 in1005.8 mb 0.00 in0.0 mm 0.00 in0.0 mm 0.00 in0.0 mm
04:15 AM 49.4°F9.7°C 48.0°F8.9°C 95% 1.0 mph SSW1.6 kmh SSW 3.1 mph5.0 kmh 29.70 in1005.8 mb 0.00 in0.0 mm 0.00 in0.0 mm 0.00 in0.0 mm
04:30 AM 49.3°F9.6°C 47.9°F8.8°C 95% 1.0 mph SW1.6 kmh SW 5.1 mph8.2 kmh 29.71 in1006.1 mb 0.00 in0.0 mm 0.00 in0.0 mm 0.00 in0.0 mm
04:45 AM 49.4°F9.7°C 47.7°F8.7°C 94% 0.1 mph WSW0.2 kmh WSW 3.1 mph5.0 kmh 29.72 in1006.4 mb 0.01 in0.3 mm 0.04 in1.0 mm 0.01 in0.3 mm
05:00 AM 49.3°F9.6°C 47.6°F8.7°C 94% 2.0 mph SW3.2 kmh SW 2.1 mph3.4 kmh 29.73 in1006.8 mb 0.01 in0.3 mm 0.00 in0.0 mm 0.01 in0.3 mm
05:15 AM 48.8°F9.3°C 47.2°F8.4°C 94% 2.0 mph WSW3.2 kmh WSW 3.1 mph5.0 kmh 29.73 in1006.8 mb 0.01 in0.3 mm 0.00 in0.0 mm 0.01 in0.3 mm
05:30 AM 48.6°F9.2°C 47.3°F8.5°C 95% 3.0 mph SW4.8 kmh SW 4.1 mph6.6 kmh 29.74 in1007.1 mb 0.01 in0.3 mm 0.00 in0.0 mm 0.01 in0.3 mm
05:45 AM 48.7°F9.3°C 47.1°F8.4°C 94% 3.0 mph SSW4.8 kmh SSW 4.1 mph6.6 kmh 29.75 in1007.5 mb 0.00 in0.0 mm 0.00 in0.0 mm 0.01 in0.3 mm
06:00 AM 48.5°F9.2°C 46.9°F8.3°C 94% 0.1 mph SW0.2 kmh SW 4.1 mph6.6 kmh 29.76 in1007.8 mb 0.00 in0.0 mm 0.00 in0.0 mm 0.01 in0.3 mm
06:15 AM 48.5°F9.2°C 47.2°F8.4°C 95% 3.0 mph SSW4.8 kmh SSW 4.1 mph6.6 kmh 29.76 in1007.8 mb 0.00 in0.0 mm 0.00 in0.0 mm 0.01 in0.3 mm
06:30 AM 48.9°F9.4°C 47.6°F8.7°C 95% 0.1 mph SW0.2 kmh SW 3.1 mph5.0 kmh 29.77 in1008.1 mb 0.00 in0.0 mm 0.00 in0.0 mm 0.01 in0.3 mm
06:45 AM 49.7°F9.8°C 48.3°F9.1°C 95% 0.1 mph SSW0.2 kmh SSW 2.1 mph3.4 kmh 29.78 in1008.5 mb 0.00 in0.0 mm 0.00 in0.0 mm 0.01 in0.3 mm
07:00 AM 50.3°F10.2°C 48.6°F9.2°C 94% 0.1 mph WNW0.2 kmh WNW 3.1 mph5.0 kmh 29.79 in1008.8 mb 0.00 in0.0 mm 0.00 in0.0 mm 0.01 in0.3 mm
07:15 AM 51.0°F10.6°C 48.4°F9.1°C 91% 7.1 mph ENE11.4 kmh ENE 12.2 mph19.6 kmh 29.82 in1009.8 mb 0.00 in0.0 mm 0.00 in0.0 mm 0.01 in0.3 mm
07:30 AM 51.2°F10.7°C 48.6°F9.2°C 91% 4.1 mph NNE6.6 kmh NNE 8.1 mph13.0 kmh 29.83 in1010.2 mb 0.00 in0.0 mm 0.00 in0.0 mm 0.01 in0.3 mm
07:45 AM 51.6°F10.9°C 49.3°F9.6°C 92% 2.0 mph NE3.2 kmh NE 3.1 mph5.0 kmh 29.83 in1010.2 mb 0.00 in0.0 mm 0.00 in0.0 mm 0.01 in0.3 mm
08:00 AM 52.0°F11.1°C 49.7°F9.8°C 92% 2.0 mph NE3.2 kmh NE 5.1 mph8.2 kmh 29.84 in1010.5 mb 0.00 in0.0 mm 0.00 in0.0 mm 0.01 in0.3 mm
08:15 AM 52.5°F11.4°C 49.9°F9.9°C 91% 5.1 mph NE8.2 kmh NE 7.1 mph11.4 kmh 29.85 in1010.8 mb 0.00 in0.0 mm 0.00 in0.0 mm 0.01 in0.3 mm
08:30 AM 52.7°F11.5°C 49.5°F9.7°C 89% 5.1 mph NNE8.2 kmh NNE 5.1 mph8.2 kmh 29.85 in1010.8 mb 0.00 in0.0 mm 0.00 in0.0 mm 0.01 in0.3 mm
08:45 AM 54.1°F12.3°C 50.0°F10.0°C 86% 10.1 mph ENE16.3 kmh ENE 12.2 mph19.6 kmh 29.86 in1011.2 mb 0.00 in0.0 mm 0.00 in0.0 mm 0.01 in0.3 mm
09:00 AM 54.8°F12.7°C 50.0°F10.0°C 84% 4.1 mph N6.6 kmh N 10.1 mph16.3 kmh 29.86 in1011.2 mb 0.00 in0.0 mm 0.00 in0.0 mm 0.01 in0.3 mm
09:15 AM 54.7°F12.6°C 49.6°F9.8°C 83% 7.1 mph E11.4 kmh E 9.1 mph14.6 kmh 29.86 in1011.2 mb 0.00 in0.0 mm 0.00 in0.0 mm 0.01 in0.3 mm
09:30 AM 56.7°F13.7°C 51.3°F10.7°C 82% 4.1 mph ENE6.6 kmh ENE 9.1 mph14.6 kmh 29.86 in1011.2 mb 0.00 in0.0 mm 0.00 in0.0 mm 0.01 in0.3 mm
09:45 AM 57.7°F14.3°C 51.6°F10.9°C 80% 2.0 mph NNW3.2 kmh NNW 6.1 mph9.8 kmh 29.87 in1011.5 mb 0.00 in0.0 mm 0.00 in0.0 mm 0.01 in0.3 mm
10:00 AM 58.6°F14.8°C 50.7°F10.4°C 75% 4.1 mph SE6.6 kmh SE 4.1 mph6.6 kmh 29.87 in1011.5 mb 0.00 in0.0 mm 0.00 in0.0 mm 0.01 in0.3 mm
10:15 AM 59.1°F15.1°C 51.6°F10.9°C 76% 0.1 mph NW0.2 kmh NW 1.1 mph1.8 kmh 29.87 in1011.5 mb 0.00 in0.0 mm 0.00 in0.0 mm 0.01 in0.3 mm
10:30 AM 59.7°F15.4°C 51.8°F11.0°C 75% 2.0 mph ENE3.2 kmh ENE 10.1 mph16.3 kmh 29.87 in1011.5 mb 0.00 in0.0 mm 0.00 in0.0 mm 0.01 in0.3 mm
10:45 AM 61.0°F16.1°C 51.9°F11.1°C 72% 0.1 mph NE0.2 kmh NE 4.1 mph6.6 kmh 29.88 in1011.9 mb 0.00 in0.0 mm 0.00 in0.0 mm 0.01 in0.3 mm
11:00 AM 60.9°F16.1°C 52.2°F11.2°C 73% 0.1 mph NE0.2 kmh NE 3.1 mph5.0 kmh 29.89 in1012.2 mb 0.00 in0.0 mm 0.00 in0.0 mm 0.01 in0.3 mm
11:15 AM 62.9°F17.2°C 53.4°F11.9°C 71% 1.0 mph NE1.6 kmh NE 7.1 mph11.4 kmh 29.89 in1012.2 mb 0.00 in0.0 mm 0.00 in0.0 mm 0.01 in0.3 mm
11:30 AM 63.3°F17.4°C 53.0°F11.7°C 69% 2.0 mph NNE3.2 kmh NNE 6.1 mph9.8 kmh 29.90 in1012.5 mb 0.00 in0.0 mm 0.00 in0.0 mm 0.01 in0.3 mm
11:45 AM 63.1°F17.3°C 53.2°F11.8°C 70% 4.1 mph NNE6.6 kmh NNE 5.1 mph8.2 kmh 29.91 in1012.9 mb 0.00 in0.0 mm 0.00 in0.0 mm 0.01 in0.3 mm
12:00 PM 63.7°F17.6°C 52.2°F11.2°C 66% 4.1 mph NNE6.6 kmh NNE 7.1 mph11.4 kmh 29.91 in1012.9 mb 0.00 in0.0 mm 0.00 in0.0 mm 0.01 in0.3 mm
12:15 PM 64.5°F18.1°C 54.1°F12.3°C 69% 3.0 mph WNW4.8 kmh WNW 11.2 mph18.0 kmh 29.90 in1012.5 mb 0.00 in0.0 mm 0.00 in0.0 mm 0.01 in0.3 mm
12:30 PM 64.4°F18.0°C 52.0°F11.1°C 64% 1.0 mph N1.6 kmh N 7.1 mph11.4 kmh 29.90 in1012.5 mb 0.00 in0.0 mm 0.00 in0.0 mm 0.01 in0.3 mm
12:45 PM 65.8°F18.8°C 54.6°F12.6°C 67% 0.1 mph NNE0.2 kmh NNE 0.1 mph0.2 kmh 29.89 in1012.2 mb 0.00 in0.0 mm 0.00 in0.0 mm 0.01 in0.3 mm
01:00 PM 65.5°F18.6°C 53.0°F11.7°C 64% 0.1 mph W0.2 kmh W 6.1 mph9.8 kmh 29.90 in1012.5 mb 0.00 in0.0 mm 0.00 in0.0 mm 0.01 in0.3 mm
01:15 PM 67.1°F19.5°C 52.3°F11.3°C 59% 6.1 mph W9.8 kmh W 6.1 mph9.8 kmh 29.89 in1012.2 mb 0.00 in0.0 mm 0.00 in0.0 mm 0.01 in0.3 mm
01:30 PM 67.2°F19.6°C 52.4°F11.3°C 59% 3.0 mph WSW4.8 kmh WSW 10.1 mph16.3 kmh 29.89 in1012.2 mb 0.00 in0.0 mm 0.00 in0.0 mm 0.01 in0.3 mm
01:45 PM 70.0°F21.1°C 52.1°F11.2°C 53% 2.0 mph NW3.2 kmh NW 6.1 mph9.8 kmh 29.90 in1012.5 mb 0.00 in0.0 mm 0.00 in0.0 mm 0.01 in0.3 mm
02:00 PM 68.9°F20.5°C 51.1°F10.6°C 53% 4.1 mph NNW6.6 kmh NNW 12.2 mph19.6 kmh 29.90 in1012.5 mb 0.00 in0.0 mm 0.00 in0.0 mm 0.01 in0.3 mm
02:15 PM 68.4°F20.2°C 50.7°F10.4°C 53% 1.0 mph NE1.6 kmh NE 11.2 mph18.0 kmh 29.90 in1012.5 mb 0.00 in0.0 mm 0.00 in0.0 mm 0.01 in0.3 mm
02:30 PM 69.4°F20.8°C 49.4°F9.7°C 49% 6.1 mph NNE9.8 kmh NNE 15.2 mph24.5 kmh 29.89 in1012.2 mb 0.00 in0.0 mm 0.00 in0.0 mm 0.01 in0.3 mm
02:45 PM 68.8°F20.4°C 48.9°F9.4°C 49% 6.1 mph NNW9.8 kmh NNW 11.2 mph18.0 kmh 29.89 in1012.2 mb 0.00 in0.0 mm 0.00 in0.0 mm 0.01 in0.3 mm
03:00 PM 68.5°F20.3°C 49.7°F9.8°C 51% 5.1 mph NNW8.2 kmh NNW 11.2 mph18.0 kmh 29.90 in1012.5 mb 0.00 in0.0 mm 0.00 in0.0 mm 0.01 in0.3 mm
03:15 PM 70.1°F21.2°C 50.6°F10.3°C 50% 3.0 mph W4.8 kmh W 9.1 mph14.6 kmh 29.89 in1012.2 mb 0.00 in0.0 mm 0.00 in0.0 mm 0.01 in0.3 mm
03:30 PM 69.8°F21.0°C 50.8°F10.4°C 51% 3.0 mph WNW4.8 kmh WNW 16.2 mph26.1 kmh 29.89 in1012.2 mb 0.00 in0.0 mm 0.00 in0.0 mm 0.01 in0.3 mm
03:45 PM 69.6°F20.9°C 49.6°F9.8°C 49% 0.1 mph NE0.2 kmh NE 7.1 mph11.4 kmh 29.89 in1012.2 mb 0.00 in0.0 mm 0.00 in0.0 mm 0.01 in0.3 mm
04:00 PM 69.1°F20.6°C 49.2°F9.6°C 49% 7.1 mph NNW11.4 kmh NNW 11.2 mph18.0 kmh 29.89 in1012.2 mb 0.00 in0.0 mm 0.00 in0.0 mm 0.01 in0.3 mm
04:15 PM 69.1°F20.6°C 49.2°F9.6°C 49% 5.1 mph NNE8.2 kmh NNE 11.2 mph18.0 kmh 29.90 in1012.5 mb 0.00 in0.0 mm 0.00 in0.0 mm 0.01 in0.3 mm
04:30 PM 68.9°F20.5°C 49.6°F9.8°C 50% 5.1 mph NE8.2 kmh NE 16.2 mph26.1 kmh 29.91 in1012.9 mb 0.00 in0.0 mm 0.00 in0.0 mm 0.01 in0.3 mm
04:45 PM 68.8°F20.4°C 48.9°F9.4°C 49% 5.1 mph N8.2 kmh N 16.2 mph26.1 kmh 29.91 in1012.9 mb 0.00 in0.0 mm 0.00 in0.0 mm 0.01 in0.3 mm
05:00 PM 67.0°F19.4°C 47.8°F8.8°C 50% 12.1 mph NE19.5 kmh NE 12.2 mph19.6 kmh 29.91 in1012.9 mb 0.00 in0.0 mm 0.00 in0.0 mm 0.01 in0.3 mm
05:15 PM 67.3°F19.6°C 47.5°F8.6°C 49% 1.0 mph NNE1.6 kmh NNE 15.2 mph24.5 kmh 29.91 in1012.9 mb 0.00 in0.0 mm 0.00 in0.0 mm 0.01 in0.3 mm
05:30 PM 67.6°F19.8°C 48.9°F9.4°C 51% 12.1 mph N19.5 kmh N 16.2 mph26.1 kmh 29.92 in1013.2 mb 0.00 in0.0 mm 0.00 in0.0 mm 0.01 in0.3 mm
05:45 PM 67.4°F19.7°C 47.6°F8.7°C 49% 9.1 mph N14.6 kmh N 9.1 mph14.6 kmh 29.92 in1013.2 mb 0.00 in0.0 mm 0.00 in0.0 mm 0.01 in0.3 mm
06:00 PM 66.4°F19.1°C 47.3°F8.5°C 50% 4.1 mph NNW6.6 kmh NNW 12.2 mph19.6 kmh 29.93 in1013.5 mb 0.00 in0.0 mm 0.00 in0.0 mm 0.01 in0.3 mm
06:15 PM 65.0°F18.3°C 47.5°F8.6°C 53% 10.1 mph N16.3 kmh N 12.2 mph19.6 kmh 29.94 in1013.9 mb 0.00 in0.0 mm 0.00 in0.0 mm 0.01 in0.3 mm
06:30 PM 64.3°F17.9°C 46.8°F8.2°C 53% 3.0 mph NNE4.8 kmh NNE 9.1 mph14.6 kmh 29.95 in1014.2 mb 0.00 in0.0 mm 0.00 in0.0 mm 0.01 in0.3 mm
06:45 PM 63.4°F17.4°C 46.5°F8.1°C 54% 11.1 mph NNW17.9 kmh NNW 15.2 mph24.5 kmh 29.95 in1014.2 mb 0.00 in0.0 mm 0.00 in0.0 mm 0.01 in0.3 mm
07:00 PM 62.6°F17.0°C 46.7°F8.2°C 56% 9.1 mph NE14.6 kmh NE 11.2 mph18.0 kmh 29.97 in1014.9 mb 0.00 in0.0 mm 0.00 in0.0 mm 0.01 in0.3 mm
07:15 PM 61.4°F16.3°C 46.1°F7.8°C 57% 6.1 mph N9.8 kmh N 13.2 mph21.2 kmh 29.98 in1015.2 mb 0.00 in0.0 mm 0.00 in0.0 mm 0.01 in0.3 mm
07:30 PM 60.5°F15.8°C 44.7°F7.1°C 56% 4.1 mph NNE6.6 kmh NNE 12.2 mph19.6 kmh 29.99 in1015.6 mb 0.00 in0.0 mm 0.00 in0.0 mm 0.01 in0.3 mm
07:45 PM 59.6°F15.3°C 44.8°F7.1°C 58% 4.1 mph N6.6 kmh N 9.1 mph14.6 kmh 30.00 in1015.9 mb 0.00 in0.0 mm 0.00 in0.0 mm 0.01 in0.3 mm
08:00 PM 58.7°F14.8°C 44.4°F6.9°C 59% 6.1 mph NE9.8 kmh NE 7.1 mph11.4 kmh 30.01 in1016.3 mb 0.00 in0.0 mm 0.00 in0.0 mm 0.01 in0.3 mm
08:15 PM 57.9°F14.4°C 43.7°F6.5°C 59% 10.1 mph NNE16.3 kmh NNE 16.2 mph26.1 kmh 30.03 in1016.9 mb 0.00 in0.0 mm 0.00 in0.0 mm 0.01 in0.3 mm
08:30 PM 56.9°F13.8°C 43.2°F6.2°C 60% 6.1 mph NE9.8 kmh NE 19.2 mph30.9 kmh 30.04 in1017.3 mb 0.00 in0.0 mm 0.00 in0.0 mm 0.01 in0.3 mm
08:45 PM 56.1°F13.4°C 42.8°F6.0°C 61% 7.1 mph NE11.4 kmh NE 10.1 mph16.3 kmh 30.05 in1017.6 mb 0.00 in0.0 mm 0.00 in0.0 mm 0.01 in0.3 mm
09:00 PM 55.4°F13.0°C 42.2°F5.7°C 61% 4.1 mph N6.6 kmh N 12.2 mph19.6 kmh 30.06 in1017.9 mb 0.00 in0.0 mm 0.00 in0.0 mm 0.01 in0.3 mm
09:15 PM 54.7°F12.6°C 42.3°F5.7°C 63% 7.1 mph NNE11.4 kmh NNE 11.2 mph18.0 kmh 30.07 in1018.3 mb 0.00 in0.0 mm 0.00 in0.0 mm 0.01 in0.3 mm
09:30 PM 54.0°F12.2°C 41.7°F5.4°C 63% 9.1 mph ENE14.6 kmh ENE 15.2 mph24.5 kmh 30.08 in1018.6 mb 0.00 in0.0 mm 0.00 in0.0 mm 0.01 in0.3 mm
09:45 PM 53.1°F11.7°C 41.2°F5.1°C 64% 2.0 mph NE3.2 kmh NE 10.1 mph16.3 kmh 30.09 in1019.0 mb 0.00 in0.0 mm 0.00 in0.0 mm 0.01 in0.3 mm
10:00 PM 52.6°F11.4°C 41.2°F5.1°C 65% 6.1 mph N9.8 kmh N 7.1 mph11.4 kmh 30.09 in1019.0 mb 0.00 in0.0 mm 0.00 in0.0 mm 0.01 in0.3 mm
10:15 PM 51.7°F10.9°C 40.7°F4.8°C 66% 10.1 mph NE16.3 kmh NE 12.2 mph19.6 kmh 30.10 in1019.3 mb 0.00 in0.0 mm 0.00 in0.0 mm 0.01 in0.3 mm
10:30 PM 51.3°F10.7°C 40.3°F4.6°C 66% 5.1 mph NE8.2 kmh NE 9.1 mph14.6 kmh 30.10 in1019.3 mb 0.00 in0.0 mm 0.00 in0.0 mm 0.01 in0.3 mm
10:45 PM 50.5°F10.3°C 40.3°F4.6°C 68% 4.1 mph NE6.6 kmh NE 9.1 mph14.6 kmh 30.10 in1019.3 mb 0.00 in0.0 mm 0.00 in0.0 mm 0.01 in0.3 mm
11:00 PM 50.1°F10.1°C 39.9°F4.4°C 68% 3.0 mph NNE4.8 kmh NNE 7.1 mph11.4 kmh 30.10 in1019.3 mb 0.00 in0.0 mm 0.00 in0.0 mm 0.01 in0.3 mm
11:15 PM 49.5°F9.7°C 39.7°F4.3°C 69% 6.1 mph NNE9.8 kmh NNE 7.1 mph11.4 kmh 30.09 in1019.0 mb 0.00 in0.0 mm 0.00 in0.0 mm 0.01 in0.3 mm
11:30 PM 48.8°F9.3°C 39.5°F4.2°C 70% 4.1 mph NE6.6 kmh NE 6.1 mph9.8 kmh 30.10 in1019.3 mb 0.00 in0.0 mm 0.00 in0.0 mm 0.01 in0.3 mm
11:45 PM 48.5°F9.2°C 39.2°F4.0°C 70% 9.1 mph NNE14.6 kmh NNE 11.2 mph18.0 kmh 30.11 in1019.6 mb 0.00 in0.0 mm 0.00 in0.0 mm 0.01 in0.3 mm